createdAt,value
2022-10-17T00:04:44.309Z,55.01
2022-10-17T00:09:45.767Z,55.31
2022-10-17T00:14:47.226Z,55.62
2022-10-17T00:19:48.681Z,55.54
2022-10-17T00:24:50.142Z,55.73
2022-10-17T00:29:51.816Z,55.46
2022-10-17T00:34:53.265Z,55.74
2022-10-17T00:39:54.707Z,55.18
2022-10-17T00:45:20.883Z,56.50
2022-10-17T00:50:22.337Z,56.23
2022-10-17T00:55:25.561Z,56.16
2022-10-17T01:00:27.113Z,56.27
2022-10-17T01:05:28.670Z,55.81
2022-10-17T01:10:33.112Z,56.74
2022-10-17T01:15:43.637Z,56.81
2022-10-17T01:21:09.429Z,57.15
2022-10-17T01:26:44.017Z,56.63
2022-10-17T01:31:46.977Z,56.39
2022-10-17T01:37:08.524Z,56.45
2022-10-17T01:42:25.740Z,55.50
2022-10-17T01:47:31.887Z,54.92
2022-10-17T01:52:38.685Z,55.22
2022-10-17T01:57:42.365Z,55.49
2022-10-17T02:02:43.949Z,55.31
2022-10-17T02:07:45.403Z,55.77
2022-10-17T02:13:07.509Z,56.47
2022-10-17T02:18:38.223Z,56.69
2022-10-17T02:23:52.115Z,56.62
2022-10-17T02:29:15.106Z,56.92
2022-10-17T02:34:30.693Z,56.75
2022-10-17T02:39:32.140Z,57.02
2022-10-17T02:44:33.584Z,57.48
2022-10-17T02:49:37.266Z,57.79
2022-10-17T02:54:43.692Z,57.40
2022-10-17T02:59:45.453Z,58.49
2022-10-17T03:04:46.959Z,58.35
2022-10-17T03:09:48.409Z,58.10
2022-10-17T03:14:49.855Z,57.59
2022-10-17T03:19:51.319Z,56.66
2022-10-17T03:24:52.779Z,56.64
2022-10-17T03:29:54.235Z,56.49
2022-10-17T03:34:55.681Z,56.10
2022-10-17T03:39:57.133Z,56.03
2022-10-17T03:44:58.580Z,55.35
2022-10-17T03:50:00.070Z,56.00
2022-10-17T03:55:01.535Z,55.26
2022-10-17T04:00:03.949Z,55.18
2022-10-17T04:05:05.818Z,55.96
2022-10-17T04:10:07.689Z,56.15
2022-10-17T04:15:09.544Z,56.87
2022-10-17T04:20:11.028Z,57.39
2022-10-17T04:25:12.482Z,57.67
2022-10-17T04:30:13.955Z,57.35
2022-10-17T04:35:15.462Z,58.41
2022-10-17T04:40:16.996Z,57.99
2022-10-17T04:45:18.461Z,58.44
2022-10-17T04:50:19.910Z,58.45
2022-10-17T04:55:21.363Z,58.55
2022-10-17T05:00:22.816Z,58.94
2022-10-17T05:05:24.294Z,60.47
2022-10-17T05:10:25.732Z,60.37
2022-10-17T05:15:27.180Z,60.82
2022-10-17T05:20:28.625Z,60.20
2022-10-17T05:25:30.079Z,60.36
2022-10-17T05:30:35.192Z,60.71
2022-10-17T05:35:38.954Z,60.70
2022-10-17T05:40:40.404Z,60.72
2022-10-17T05:45:41.901Z,61.61
2022-10-17T05:50:43.362Z,62.04
2022-10-17T05:55:44.809Z,63.61
2022-10-17T06:05:52.642Z,63.39
2022-10-17T06:10:54.102Z,63.79
2022-10-17T06:15:55.569Z,63.63
2022-10-17T06:21:07.824Z,62.84
2022-10-17T06:26:09.264Z,63.11
2022-10-17T06:31:13.121Z,62.94
2022-10-17T06:36:14.757Z,63.07
2022-10-17T06:41:16.623Z,63.43
2022-10-17T06:46:18.652Z,63.65
2022-10-17T06:51:20.129Z,63.68
2022-10-17T06:56:21.589Z,64.12
2022-10-17T07:01:23.091Z,64.32
2022-10-17T07:06:24.699Z,65.06
2022-10-17T07:11:26.148Z,64.82
2022-10-17T07:16:27.910Z,64.59
2022-10-17T07:21:29.423Z,64.00
2022-10-17T07:26:30.872Z,63.30
2022-10-17T07:31:32.316Z,63.29
2022-10-17T07:36:33.789Z,63.88
2022-10-17T07:41:35.249Z,64.84
2022-10-17T07:46:36.704Z,63.90
2022-10-17T07:51:38.232Z,64.04
2022-10-17T07:56:39.699Z,63.67
2022-10-17T08:01:41.159Z,62.51
2022-10-17T08:06:42.628Z,62.20
2022-10-17T08:11:44.185Z,63.43
2022-10-17T08:16:45.700Z,62.76
2022-10-17T08:21:47.159Z,62.74
2022-10-17T08:26:51.710Z,62.60
2022-10-17T08:31:58.512Z,62.92
2022-10-17T08:37:03.007Z,62.75
2022-10-17T08:42:26.957Z,62.28
2022-10-17T08:47:40.962Z,62.07
2022-10-17T08:52:51.792Z,62.34
2022-10-17T08:57:53.271Z,61.90
2022-10-17T09:03:15.978Z,61.32
2022-10-17T09:08:22.666Z,61.73
2022-10-17T09:13:32.742Z,62.01
2022-10-17T09:18:43.070Z,60.90
2022-10-17T09:23:53.304Z,60.72
2022-10-17T09:29:01.158Z,60.78
2022-10-17T09:34:02.802Z,60.16
2022-10-17T09:39:22.386Z,60.50
2022-10-17T09:44:25.820Z,60.91
2022-10-17T09:49:33.359Z,60.73
2022-10-17T09:54:50.416Z,60.91
2022-10-17T10:00:02.503Z,60.25
2022-10-17T10:05:17.224Z,60.08
2022-10-17T10:10:27.779Z,60.43
2022-10-17T10:15:32.422Z,59.50
2022-10-17T10:20:35.655Z,59.70
2022-10-17T10:25:37.120Z,60.14
2022-10-17T10:30:39.934Z,59.86
2022-10-17T10:35:41.659Z,60.27
2022-10-17T10:40:48.068Z,60.38
2022-10-17T10:45:49.573Z,59.95
2022-10-17T10:51:12.424Z,60.97
2022-10-17T10:56:24.707Z,61.97
2022-10-17T11:02:13.128Z,61.32
2022-10-17T11:07:15.994Z,61.39
2022-10-17T11:12:20.917Z,62.01
2022-10-17T11:17:35.120Z,62.26
2022-10-17T11:22:47.926Z,61.43
2022-10-17T11:27:49.430Z,62.16
2022-10-17T11:32:53.820Z,62.56
2022-10-17T11:38:24.437Z,64.21
2022-10-17T11:43:32.330Z,63.34
2022-10-17T11:49:07.618Z,64.90
2022-10-17T11:54:13.781Z,66.40
2022-10-17T11:59:38.237Z,64.51
2022-10-17T12:04:49.622Z,63.35
2022-10-17T12:09:54.318Z,63.23
2022-10-17T12:15:24.309Z,62.30
2022-10-17T12:20:27.728Z,62.95
2022-10-17T12:25:32.046Z,62.58
2022-10-17T12:30:33.662Z,63.26
2022-10-17T12:35:36.372Z,62.76
2022-10-17T12:40:37.684Z,64.03
2022-10-17T12:45:58.062Z,63.55
2022-10-17T12:56:46.720Z,62.65
2022-10-17T13:01:50.977Z,63.21
2022-10-17T13:06:54.326Z,63.11
2022-10-17T13:11:57.463Z,63.09
2022-10-17T13:17:00.730Z,62.80
2022-10-17T13:22:06.900Z,62.42
2022-10-17T13:27:25.547Z,62.41
2022-10-17T13:32:34.555Z,62.40
2022-10-17T13:37:36.139Z,61.98
2022-10-17T13:42:38.951Z,62.31
2022-10-17T13:47:40.426Z,62.08
2022-10-17T13:52:41.902Z,62.14
2022-10-17T13:57:43.354Z,62.65
2022-10-17T14:02:44.846Z,62.29
2022-10-17T14:08:15.110Z,61.99
2022-10-17T14:13:21.537Z,61.80
2022-10-17T14:18:36.467Z,61.69
2022-10-17T14:23:40.391Z,62.79
2022-10-17T14:28:43.360Z,63.03
2022-10-17T14:33:50.446Z,62.69
2022-10-17T14:38:52.754Z,62.91
2022-10-17T14:44:01.980Z,63.11
2022-10-17T14:49:06.193Z,62.57
2022-10-17T14:54:25.057Z,62.52
2022-10-17T15:04:47.848Z,62.22
2022-10-17T15:09:50.251Z,62.34
2022-10-17T15:14:51.805Z,61.14
2022-10-17T15:19:53.330Z,60.69
2022-10-17T15:24:54.816Z,61.14
2022-10-17T15:29:56.269Z,60.81
2022-10-17T15:34:57.774Z,62.01
2022-10-17T15:39:59.228Z,61.29
2022-10-17T15:45:00.717Z,61.74
2022-10-17T15:50:02.258Z,61.31
2022-10-17T15:55:05.535Z,61.44
2022-10-17T16:00:16.370Z,61.60
2022-10-17T16:05:23.075Z,63.58
2022-10-17T16:10:25.862Z,63.15
2022-10-17T16:15:27.967Z,63.82
2022-10-17T16:20:29.462Z,62.85
2022-10-17T16:25:31.270Z,62.38
2022-10-17T16:30:32.815Z,62.67
2022-10-17T16:35:36.762Z,62.57
2022-10-17T16:40:40.114Z,63.61
2022-10-17T16:45:41.576Z,64.69
2022-10-17T16:50:43.033Z,64.47
2022-10-17T16:55:44.479Z,64.71
2022-10-17T17:00:45.998Z,63.76
2022-10-17T17:05:51.744Z,65.36
2022-10-17T17:10:55.292Z,64.15
2022-10-17T17:16:06.977Z,66.19
2022-10-17T17:21:09.099Z,65.54
2022-10-17T17:26:20.858Z,65.01
2022-10-17T17:31:24.359Z,64.68
2022-10-17T17:36:30.565Z,64.92
2022-10-17T17:41:32.114Z,64.66
2022-10-17T17:46:33.570Z,64.15
2022-10-17T17:51:37.406Z,63.87
2022-10-17T17:56:38.881Z,63.94
2022-10-17T18:01:40.445Z,64.84
2022-10-17T18:06:42.006Z,64.32
2022-10-17T18:11:43.452Z,63.99
2022-10-17T18:16:44.909Z,63.96
2022-10-17T18:21:46.390Z,63.81
2022-10-17T18:26:47.849Z,64.44
2022-10-17T18:31:49.397Z,63.95
2022-10-17T18:36:52.769Z,63.59
2022-10-17T18:41:54.342Z,64.47
2022-10-17T18:46:58.563Z,64.50
2022-10-17T18:52:02.963Z,64.31
2022-10-17T18:57:04.554Z,66.40
2022-10-17T19:02:06.543Z,65.33
2022-10-17T19:07:08.089Z,64.87
2022-10-17T19:12:09.545Z,63.95
2022-10-17T19:17:10.994Z,63.99
2022-10-17T19:22:12.450Z,64.11
2022-10-17T19:27:13.932Z,63.27
2022-10-17T19:32:17.933Z,66.20
2022-10-17T19:37:22.175Z,64.84
2022-10-17T19:42:23.685Z,65.08
2022-10-17T19:47:25.318Z,65.84
2022-10-17T19:52:27.649Z,65.89
2022-10-17T19:57:29.239Z,66.43
2022-10-17T20:02:30.913Z,66.15
2022-10-17T20:07:32.563Z,65.80
2022-10-17T20:12:34.224Z,65.58
2022-10-17T20:17:35.701Z,65.43
2022-10-17T20:22:37.176Z,65.02
2022-10-17T20:27:38.658Z,65.42
2022-10-17T20:32:40.126Z,65.00
2022-10-17T20:37:42.737Z,64.82
2022-10-17T20:42:44.553Z,67.43
2022-10-17T20:47:52.327Z,65.64
2022-10-17T20:53:10.974Z,65.89
2022-10-17T20:58:15.456Z,66.61
2022-10-17T21:03:16.904Z,67.39
2022-10-17T21:08:18.352Z,67.27
2022-10-17T21:13:19.796Z,66.39
2022-10-17T21:18:21.237Z,67.10
2022-10-17T21:23:22.720Z,67.34
2022-10-17T21:28:24.177Z,66.42
2022-10-17T21:33:25.643Z,67.02
2022-10-17T21:38:27.089Z,65.88
2022-10-17T21:43:28.558Z,65.43
2022-10-17T21:48:30.013Z,66.53
2022-10-17T21:53:31.493Z,67.55
2022-10-17T21:58:33.455Z,66.43
2022-10-17T22:03:35.638Z,66.00
2022-10-17T22:08:36.956Z,66.25
2022-10-17T22:13:38.450Z,65.37
2022-10-17T22:18:40.017Z,64.77
2022-10-17T22:23:42.225Z,65.27
2022-10-17T22:28:43.675Z,65.27
2022-10-17T22:33:45.144Z,65.09
2022-10-17T22:38:46.593Z,65.52
2022-10-17T22:43:48.164Z,64.86
2022-10-17T22:48:49.643Z,65.13
2022-10-17T22:53:51.106Z,66.32
2022-10-17T22:58:52.599Z,66.23
2022-10-17T23:03:54.147Z,66.61
2022-10-17T23:08:55.649Z,67.38
2022-10-17T23:13:57.140Z,67.83
2022-10-17T23:18:58.646Z,67.08
2022-10-17T23:24:00.095Z,68.16
2022-10-17T23:29:01.608Z,67.88
2022-10-17T23:34:03.163Z,66.62
2022-10-17T23:39:05.484Z,66.69
2022-10-17T23:44:06.974Z,66.03
2022-10-17T23:49:08.430Z,67.78
2022-10-17T23:54:09.871Z,66.06
2022-10-17T23:59:11.371Z,66.39
